createdAt,value
2023-01-30T00:00:06.161Z,56.43
2023-01-30T00:05:29.258Z,56.26
2023-01-30T00:10:32.478Z,56.27
2023-01-30T00:15:36.702Z,56.22
2023-01-30T00:20:40.106Z,56.02
2023-01-30T00:25:46.217Z,55.96
2023-01-30T00:30:51.289Z,55.96
2023-01-30T00:35:56.475Z,55.97
2023-01-30T00:40:59.814Z,56.06
2023-01-30T00:46:28.152Z,56.25
2023-01-30T00:51:31.311Z,56.25
2023-01-30T00:56:35.038Z,56.26
2023-01-30T01:01:38.581Z,56.32
2023-01-30T01:06:41.848Z,56.52
2023-01-30T01:11:45.171Z,56.45
2023-01-30T01:16:48.554Z,56.58
2023-01-30T01:21:52.069Z,56.71
2023-01-30T01:26:55.514Z,56.77
2023-01-30T01:31:58.841Z,56.92
2023-01-30T01:37:02.447Z,56.84
2023-01-30T01:42:16.658Z,56.84
2023-01-30T01:47:20.947Z,56.81
2023-01-30T01:52:24.355Z,56.71
2023-01-30T01:57:34.872Z,56.58
2023-01-30T02:02:59.786Z,56.53
2023-01-30T02:08:07.915Z,56.54
2023-01-30T02:13:11.287Z,56.60
2023-01-30T02:18:15.624Z,56.71
2023-01-30T02:23:43.941Z,56.82
2023-01-30T02:29:07.710Z,56.88
2023-01-30T02:34:35.222Z,57.07
2023-01-30T02:40:01.333Z,57.08
2023-01-30T02:45:30.328Z,57.09
2023-01-30T02:50:36.167Z,57.18
2023-01-30T02:55:41.178Z,57.30
2023-01-30T03:00:47.507Z,57.26
2023-01-30T03:06:05.459Z,57.36
2023-01-30T03:11:10.836Z,57.39
2023-01-30T03:16:41.207Z,57.39
2023-01-30T03:21:46.067Z,57.40
2023-01-30T03:26:55.288Z,57.43
2023-01-30T03:31:58.725Z,57.42
2023-01-30T03:37:03.283Z,57.38
2023-01-30T03:42:10.497Z,57.44
2023-01-30T03:47:15.224Z,57.46
2023-01-30T03:52:18.826Z,57.32
2023-01-30T03:57:22.167Z,57.20
2023-01-30T04:02:26.525Z,57.18
2023-01-30T04:07:30.534Z,57.18
2023-01-30T04:12:34.148Z,56.82
2023-01-30T04:17:38.002Z,57.15
2023-01-30T04:23:01.738Z,57.39
2023-01-30T04:28:07.154Z,57.56
2023-01-30T04:33:13.450Z,57.42
2023-01-30T04:38:16.705Z,57.11
2023-01-30T04:43:22.216Z,56.93
2023-01-30T04:48:28.547Z,56.94
2023-01-30T04:53:33.188Z,56.69
2023-01-30T04:58:36.692Z,56.37
2023-01-30T05:03:39.970Z,56.26
2023-01-30T05:08:44.786Z,56.33
2023-01-30T05:13:50.219Z,56.27
2023-01-30T05:18:53.517Z,56.18
2023-01-30T05:23:57.693Z,56.06
2023-01-30T05:29:01.177Z,55.27
2023-01-30T05:34:05.229Z,54.90
2023-01-30T05:39:08.882Z,54.90
2023-01-30T05:44:12.697Z,54.86
2023-01-30T05:49:22.750Z,54.33
2023-01-30T05:54:26.128Z,54.49
2023-01-30T05:59:29.411Z,53.88
2023-01-30T06:04:32.686Z,53.57
2023-01-30T06:09:35.980Z,53.59
2023-01-30T06:14:39.498Z,53.42
2023-01-30T06:19:42.742Z,53.43
2023-01-30T06:24:46.186Z,53.54
2023-01-30T06:29:49.523Z,53.41
2023-01-30T06:34:52.813Z,53.40
2023-01-30T06:39:56.185Z,53.54
2023-01-30T06:44:59.478Z,53.81
2023-01-30T06:50:03.016Z,53.52
2023-01-30T06:55:06.978Z,53.69
2023-01-30T07:00:16.407Z,53.95
2023-01-30T07:05:20.042Z,54.05
2023-01-30T07:10:24.048Z,54.20
2023-01-30T07:15:27.725Z,54.10
2023-01-30T07:20:31.609Z,53.81
2023-01-30T07:25:35.005Z,53.55
2023-01-30T07:30:38.445Z,53.09
2023-01-30T07:35:41.922Z,52.99
2023-01-30T07:40:45.365Z,53.19
2023-01-30T07:45:49.422Z,52.91
2023-01-30T07:50:56.976Z,52.77
2023-01-30T07:56:01.179Z,52.82
2023-01-30T08:01:05.087Z,52.40
2023-01-30T08:06:08.781Z,52.59
2023-01-30T08:11:12.291Z,51.88
2023-01-30T08:16:15.793Z,51.70
2023-01-30T08:21:20.100Z,52.04
2023-01-30T08:26:24.109Z,52.12
2023-01-30T08:31:28.355Z,51.95
2023-01-30T08:36:33.009Z,52.01
2023-01-30T08:41:36.901Z,51.78
2023-01-30T08:46:41.015Z,51.71
2023-01-30T08:51:45.258Z,51.70
2023-01-30T08:56:52.661Z,51.35
2023-01-30T09:01:57.411Z,51.13
2023-01-30T09:07:00.729Z,51.11
2023-01-30T09:12:04.466Z,51.33
2023-01-30T09:17:07.810Z,51.65
2023-01-30T09:22:11.159Z,52.00
2023-01-30T09:27:15.491Z,52.42
2023-01-30T09:32:19.214Z,52.59
2023-01-30T09:37:23.450Z,52.85
2023-01-30T09:42:59.250Z,53.08
2023-01-30T09:48:30.466Z,53.07
2023-01-30T09:53:43.291Z,53.37
2023-01-30T09:58:53.791Z,53.63
2023-01-30T10:04:19.523Z,53.89
2023-01-30T10:09:41.677Z,54.32
2023-01-30T10:15:05.707Z,55.06
2023-01-30T10:20:33.552Z,55.37
2023-01-30T10:25:39.628Z,55.58
2023-01-30T10:30:46.572Z,55.63
2023-01-30T10:36:08.654Z,56.10
2023-01-30T10:41:20.070Z,56.22
2023-01-30T10:46:48.929Z,56.93
2023-01-30T10:52:13.031Z,57.03
2023-01-30T10:57:17.819Z,56.78
2023-01-30T11:02:31.955Z,57.62
2023-01-30T11:07:36.445Z,57.70
2023-01-30T11:12:43.928Z,58.82
2023-01-30T11:17:50.091Z,60.05
2023-01-30T11:23:27.630Z,60.60
2023-01-30T11:28:40.520Z,61.78
2023-01-30T11:34:02.540Z,63.82
2023-01-30T11:39:16.520Z,53.88
2023-01-30T11:44:29.473Z,55.13
2023-01-30T11:49:47.297Z,58.48
2023-01-30T11:55:14.082Z,60.28
2023-01-30T12:00:23.051Z,64.62
2023-01-30T12:05:37.978Z,63.15
2023-01-30T12:10:46.007Z,52.09
2023-01-30T12:16:07.859Z,53.50
2023-01-30T12:21:28.470Z,57.73
2023-01-30T12:26:54.034Z,58.96
2023-01-30T12:32:10.471Z,61.35
2023-01-30T12:37:19.916Z,64.69
2023-01-30T12:42:57.219Z,63.75
2023-01-30T12:48:24.397Z,50.89
2023-01-30T12:53:55.735Z,52.83
2023-01-30T12:59:19.490Z,55.92
2023-01-30T13:05:07.482Z,58.82
2023-01-30T13:10:23.749Z,60.96
2023-01-30T13:15:33.310Z,64.44
2023-01-30T13:21:00.687Z,59.43
2023-01-30T13:26:16.548Z,50.57
2023-01-30T13:31:23.993Z,54.03
2023-01-30T13:36:53.077Z,58.22
2023-01-30T13:41:59.815Z,69.50
2023-01-30T13:47:23.174Z,54.51
2023-01-30T13:52:26.880Z,52.18
2023-01-30T13:57:42.125Z,55.00
2023-01-30T14:03:05.272Z,58.46
2023-01-30T14:08:22.394Z,59.43
2023-01-30T14:13:30.648Z,63.71
2023-01-30T14:18:40.749Z,63.46
2023-01-30T14:23:59.124Z,53.34
2023-01-30T14:29:03.861Z,53.61
2023-01-30T14:34:40.581Z,56.29
2023-01-30T14:39:52.218Z,58.86
2023-01-30T14:45:00.952Z,60.84
2023-01-30T14:50:19.150Z,62.74
2023-01-30T14:55:30.296Z,65.97
2023-01-30T15:00:38.079Z,52.50
2023-01-30T15:05:47.316Z,52.13
2023-01-30T15:11:13.341Z,53.78
2023-01-30T15:16:38.889Z,56.16
2023-01-30T15:22:14.455Z,57.38
2023-01-30T15:27:32.697Z,58.60
2023-01-30T15:32:36.811Z,59.80
2023-01-30T15:37:48.433Z,60.76
2023-01-30T15:42:58.864Z,60.36
2023-01-30T15:48:34.850Z,61.82
2023-01-30T15:53:45.149Z,62.03
2023-01-30T15:58:50.207Z,65.53
2023-01-30T16:03:55.598Z,56.30
2023-01-30T16:09:06.337Z,51.71
2023-01-30T16:14:18.841Z,54.10
2023-01-30T16:19:29.750Z,56.57
2023-01-30T16:24:37.016Z,57.95
2023-01-30T16:29:51.452Z,60.12
2023-01-30T16:35:17.722Z,60.80
2023-01-30T16:40:25.905Z,61.73
2023-01-30T16:45:38.102Z,66.13
2023-01-30T16:50:43.808Z,55.38
2023-01-30T16:56:10.212Z,53.84
2023-01-30T17:01:14.174Z,56.64
2023-01-30T17:06:40.107Z,58.55
2023-01-30T17:11:44.293Z,59.95
2023-01-30T17:17:08.495Z,61.26
2023-01-30T17:22:24.784Z,61.37
2023-01-30T17:27:30.576Z,65.27
2023-01-30T17:32:35.449Z,55.83
2023-01-30T17:37:40.317Z,53.41
2023-01-30T17:42:45.346Z,55.66
2023-01-30T17:47:50.882Z,57.50
2023-01-30T17:52:55.658Z,58.34
2023-01-30T17:58:01.645Z,59.73
2023-01-30T18:03:05.941Z,59.89
2023-01-30T18:08:09.875Z,60.65
2023-01-30T18:13:14.172Z,61.01
2023-01-30T18:18:18.667Z,61.15
2023-01-30T18:23:22.039Z,61.61
2023-01-30T18:28:26.425Z,61.96
2023-01-30T18:33:33.129Z,65.66
2023-01-30T18:38:36.695Z,58.43
2023-01-30T18:43:40.241Z,52.68
2023-01-30T18:48:45.127Z,55.43
2023-01-30T18:53:51.375Z,57.32
2023-01-30T18:58:56.546Z,59.49
2023-01-30T19:04:02.093Z,60.32
2023-01-30T19:09:17.403Z,61.03
2023-01-30T19:14:20.860Z,65.54
2023-01-30T19:19:25.011Z,57.85
2023-01-30T19:24:28.368Z,52.50
2023-01-30T19:29:31.691Z,54.59
2023-01-30T19:34:35.128Z,57.28
2023-01-30T19:39:38.492Z,58.43
2023-01-30T19:44:42.954Z,59.70
2023-01-30T19:49:46.244Z,60.77
2023-01-30T19:54:49.738Z,61.36
2023-01-30T19:59:53.047Z,61.36
2023-01-30T20:04:57.434Z,61.65
2023-01-30T20:10:00.930Z,66.41
2023-01-30T20:15:06.195Z,57.09
2023-01-30T20:20:10.666Z,52.63
2023-01-30T20:26:26.630Z,54.05
2023-01-30T20:31:31.057Z,56.64
2023-01-30T20:36:34.720Z,58.20
2023-01-30T20:41:38.808Z,59.48
2023-01-30T20:46:45.012Z,60.25
2023-01-30T20:51:51.278Z,61.13
2023-01-30T20:56:54.664Z,61.93
2023-01-30T21:01:58.025Z,66.73
2023-01-30T21:07:01.696Z,62.26
2023-01-30T21:12:05.608Z,52.57
2023-01-30T21:17:09.118Z,52.88
2023-01-30T21:22:12.402Z,55.60
2023-01-30T21:27:15.631Z,59.06
2023-01-30T21:32:19.399Z,60.45
2023-01-30T21:37:41.213Z,61.25
2023-01-30T21:43:03.555Z,68.15
2023-01-30T21:48:06.876Z,61.03
2023-01-30T21:53:10.120Z,52.60
2023-01-30T21:58:13.529Z,53.73
2023-01-30T22:03:16.839Z,56.89
2023-01-30T22:08:20.001Z,58.97
2023-01-30T22:13:23.306Z,60.02
2023-01-30T22:18:26.506Z,61.92
2023-01-30T22:23:38.543Z,68.25
2023-01-30T22:28:42.032Z,60.70
2023-01-30T22:33:51.517Z,52.27
2023-01-30T22:38:55.445Z,53.57
2023-01-30T22:43:59.980Z,55.50
2023-01-30T22:49:05.584Z,57.79
2023-01-30T22:54:16.120Z,59.96
2023-01-30T22:59:19.776Z,61.47
2023-01-30T23:04:23.882Z,67.65
2023-01-30T23:09:27.287Z,60.25
2023-01-30T23:14:30.563Z,52.08
2023-01-30T23:19:33.720Z,54.26
2023-01-30T23:24:37.105Z,56.72
2023-01-30T23:29:40.313Z,58.76
2023-01-30T23:34:43.542Z,60.46
2023-01-30T23:39:46.870Z,61.36
2023-01-30T23:44:53.221Z,68.24
2023-01-30T23:49:56.579Z,61.21
2023-01-30T23:55:00.176Z,51.91
